Aérodrome :
LOGIN :

S'inscrire | Disclaimer

   EN    FR    IT 

 










Légende :    VFR   VFR Marginal   IFR   IFR Intensif   IFR Très Intensif
Visi : 
Plafond : 
>= 8 km
>= 3000ft
5 à 8 km
1000 à 3000 ft
1500m à 5 km
500 à 1000 ft
800 à 1500m
200 à 500 ft
< 800m
< 200 ft
Symboles :   Orages  Brouillard  Fortes neiges  Fortes précipitations  Vent > 20 kt
SIGMETs :   Divers  Orages  Givrage  Turbulence  Onde Orograph.  Cendres Volcan.







- Altitude de l'aérodrome : 16 ft
- Code IATA : EAS


LESO - San Sebastian Fuenterrabia

DERNIER METAR :
  • 180500Z 19002KT 9999 SCT065 09/09 Q1008

METARs EXPIRÉS :
  • 180430Z VRB01KT 9999 SCT065 09/09 Q1008
  • 180400Z AUTO 00000KT 6000 FEW005/// 08/08 Q1008
  • 180330Z AUTO VRB01KT 7000 NCD 09/08 Q1008
  • 180300Z AUTO VRB01KT 7000 NCD 08/07 Q1009
  • 180230Z AUTO 00000KT 6000 NCD 08/08 Q1009

TAF TAF LESO
Valide du 18 à 00h jusqu'au 19 à 00h UTC


172300Z 1800/1824 15007KT CAVOK TX16/1813Z TN08/1806Z
PROB40
TEMPO 1806/1818 09010KT SHRA RA SCT025TCU
Pas de NOTAMs connus pour ce terrain.
1 SIGMET publié pour la FIR Madrid (LECM) :
 
Orages noyés dans la masse
LECM SIGMET 2 VALID 180400/180600 LEVA
LECM MADRID FIR/UIR EMBD TS FCST W OF LINE N38 W00658 - N3553 W00619 TOP FL280 MOV NE NC=



MET'MAP, la Météo Aéronautique d'un coup d'oeil ! - Copyright ORBIFLY Décembre 2007 - Disclaimer

ORBIFLY MET'MAP TEAM :

Programmation & Développement : Alexandra Zaïnal
Conception & Développement : Baudouin d'Aumeries
Co-Programmation & Développement : Marc-Olivier Méhu
Soutien technique & logistique : Manuel Goepfert

Contact : metmap@orbifly.com




SOURCES & CREDITS :

   NOAA